createdAt,value
2018-12-17T00:00:38.011Z,82.22
2018-12-17T00:03:05.555Z,82.27
2018-12-17T00:05:32.971Z,82.42
2018-12-17T00:08:00.454Z,82.14
2018-12-17T00:10:27.892Z,81.88
2018-12-17T00:12:55.365Z,81.98
2018-12-17T00:15:22.887Z,82.16
2018-12-17T00:17:50.331Z,82.20
2018-12-17T00:20:17.811Z,82.15
2018-12-17T00:22:45.302Z,81.88
2018-12-17T00:25:12.749Z,82.32
2018-12-17T00:27:40.206Z,82.18
2018-12-17T00:30:07.973Z,82.44
2018-12-17T00:32:35.492Z,82.04
2018-12-17T00:35:03.103Z,82.63
2018-12-17T00:37:30.547Z,82.56
2018-12-17T00:39:58.434Z,82.66
2018-12-17T00:42:25.871Z,82.34
2018-12-17T00:44:53.316Z,83.08
2018-12-17T00:47:20.735Z,82.67
2018-12-17T00:49:48.188Z,83.30
2018-12-17T00:52:15.684Z,83.49
2018-12-17T00:54:43.150Z,82.88
2018-12-17T00:57:10.686Z,83.31
2018-12-17T00:59:38.223Z,83.29
2018-12-17T01:02:05.659Z,83.80
2018-12-17T01:04:33.139Z,83.57
2018-12-17T01:07:00.683Z,83.73
2018-12-17T01:09:28.159Z,83.58
2018-12-17T01:11:55.634Z,83.94
2018-12-17T01:14:23.067Z,83.68
2018-12-17T01:16:50.511Z,83.59
2018-12-17T01:19:18.046Z,83.60
2018-12-17T01:21:45.567Z,84.12
2018-12-17T01:24:13.028Z,83.82
2018-12-17T01:26:40.485Z,83.72
2018-12-17T01:29:07.951Z,84.15
2018-12-17T01:31:35.391Z,84.24
2018-12-17T01:34:02.825Z,84.35
2018-12-17T01:36:30.250Z,84.23
2018-12-17T01:38:57.782Z,84.26
2018-12-17T01:41:25.216Z,84.19
2018-12-17T01:43:52.652Z,84.45
2018-12-17T01:46:20.100Z,84.64
2018-12-17T01:48:47.548Z,84.79
2018-12-17T01:51:15.012Z,84.71
2018-12-17T01:53:42.502Z,84.52
2018-12-17T01:56:10.022Z,84.57
2018-12-17T01:58:37.529Z,84.89
2018-12-17T02:01:04.971Z,85.38
2018-12-17T02:03:32.439Z,84.88
2018-12-17T02:05:59.895Z,84.61
2018-12-17T02:08:27.361Z,84.86
2018-12-17T02:10:54.788Z,85.11
2018-12-17T02:13:22.249Z,85.16
2018-12-17T02:15:49.703Z,84.92
2018-12-17T02:18:17.144Z,84.95
2018-12-17T02:20:44.604Z,85.08
2018-12-17T02:23:12.081Z,85.08
2018-12-17T02:25:39.507Z,84.64
2018-12-17T02:28:06.975Z,84.67
2018-12-17T02:30:34.438Z,85.03
2018-12-17T02:33:01.892Z,85.32
2018-12-17T02:35:29.330Z,85.23
2018-12-17T02:37:56.766Z,85.08
2018-12-17T02:40:24.195Z,84.88
2018-12-17T02:42:51.678Z,85.13
2018-12-17T02:45:19.170Z,84.41
2018-12-17T02:47:46.625Z,84.66
2018-12-17T02:50:14.030Z,84.51
2018-12-17T02:52:41.488Z,85.08
2018-12-17T02:55:08.910Z,84.54
2018-12-17T02:57:36.359Z,85.14
2018-12-17T03:00:06.093Z,84.94
2018-12-17T03:02:33.558Z,84.81
2018-12-17T03:05:00.985Z,84.93
2018-12-17T03:07:28.418Z,85.36
2018-12-17T03:09:55.856Z,84.79
2018-12-17T03:12:23.273Z,84.98
2018-12-17T03:14:50.714Z,84.89
2018-12-17T03:17:18.169Z,85.34
2018-12-17T03:19:45.605Z,85.21
2018-12-17T03:22:13.103Z,85.30
2018-12-17T03:24:40.705Z,84.95
2018-12-17T03:27:09.672Z,85.15
2018-12-17T03:29:37.136Z,85.19
2018-12-17T03:32:04.735Z,84.95
2018-12-17T03:34:32.233Z,85.27
2018-12-17T03:36:59.654Z,85.17
2018-12-17T03:39:27.182Z,85.12
2018-12-17T03:41:54.597Z,85.34
2018-12-17T03:44:22.115Z,84.73
2018-12-17T03:46:49.559Z,85.25
2018-12-17T03:49:16.978Z,85.33
2018-12-17T03:51:44.473Z,84.82
2018-12-17T03:54:11.890Z,85.07
2018-12-17T03:56:39.338Z,85.00
2018-12-17T03:59:06.760Z,85.17
2018-12-17T04:01:34.257Z,85.04
2018-12-17T04:04:01.673Z,85.20
2018-12-17T04:06:29.128Z,84.99
2018-12-17T04:08:56.583Z,84.94
2018-12-17T04:11:24.034Z,84.84
2018-12-17T04:13:51.489Z,84.86
2018-12-17T04:16:18.933Z,85.04
2018-12-17T04:18:46.389Z,85.24
2018-12-17T04:21:13.831Z,85.10
2018-12-17T04:23:41.262Z,85.59
2018-12-17T04:26:09.810Z,84.85
2018-12-17T04:28:37.263Z,85.31
2018-12-17T04:31:04.705Z,85.17
2018-12-17T04:33:32.202Z,84.89
2018-12-17T04:35:59.637Z,85.17
2018-12-17T04:38:27.082Z,85.12
2018-12-17T04:40:54.556Z,85.35
2018-12-17T04:43:22.020Z,85.38
2018-12-17T04:45:49.491Z,85.57
2018-12-17T04:48:17.050Z,85.49
2018-12-17T04:50:44.542Z,85.32
2018-12-17T04:53:12.000Z,85.47
2018-12-17T04:55:39.457Z,85.32
2018-12-17T04:58:07.074Z,85.55
2018-12-17T05:00:34.599Z,85.58
2018-12-17T05:03:02.060Z,85.52
2018-12-17T05:05:29.570Z,85.79
2018-12-17T05:07:57.017Z,85.64
2018-12-17T05:10:24.470Z,85.64
2018-12-17T05:12:51.932Z,85.88
2018-12-17T05:15:19.508Z,85.67
2018-12-17T05:17:46.944Z,85.58
2018-12-17T05:20:14.410Z,85.44
2018-12-17T05:22:41.859Z,85.60
2018-12-17T05:25:09.406Z,85.60
2018-12-17T05:27:41.007Z,85.27
2018-12-17T05:30:08.922Z,85.57
2018-12-17T05:32:36.344Z,85.82
2018-12-17T05:35:04.312Z,85.75
2018-12-17T05:37:31.735Z,86.06
2018-12-17T05:39:59.186Z,85.69
2018-12-17T05:42:26.644Z,86.01
2018-12-17T05:44:54.193Z,85.57
2018-12-17T05:47:21.621Z,85.61
2018-12-17T05:49:49.108Z,85.59
2018-12-17T05:52:16.707Z,85.77
2018-12-17T05:54:44.169Z,86.39
2018-12-17T05:57:11.628Z,85.81
2018-12-17T05:59:39.145Z,86.17
2018-12-17T06:02:06.582Z,86.33
2018-12-17T06:04:34.037Z,86.27
2018-12-17T06:07:01.487Z,86.38
2018-12-17T06:09:29.085Z,86.51
2018-12-17T06:11:56.530Z,86.45
2018-12-17T06:14:24.032Z,86.66
2018-12-17T06:16:51.487Z,86.63
2018-12-17T06:19:18.909Z,86.58
2018-12-17T06:21:46.358Z,86.85
2018-12-17T06:24:13.774Z,86.52
2018-12-17T06:26:41.237Z,87.24
2018-12-17T06:29:08.666Z,87.00
2018-12-17T06:31:36.256Z,86.89
2018-12-17T06:34:03.682Z,87.29
2018-12-17T06:36:31.173Z,87.34
2018-12-17T06:38:58.621Z,87.45
2018-12-17T06:41:26.075Z,87.22
2018-12-17T06:43:53.518Z,87.23
2018-12-17T06:46:20.983Z,87.39
2018-12-17T06:48:48.429Z,87.30
2018-12-17T06:51:15.885Z,87.38
2018-12-17T06:53:43.331Z,87.86
2018-12-17T06:56:10.834Z,87.80
2018-12-17T06:58:38.374Z,87.21
2018-12-17T07:01:05.813Z,87.94
2018-12-17T07:03:33.262Z,87.88
2018-12-17T07:06:00.704Z,87.58
2018-12-17T07:08:28.296Z,87.90
2018-12-17T07:10:55.741Z,88.00
2018-12-17T07:13:23.185Z,87.82
2018-12-17T07:15:50.660Z,87.95
2018-12-17T07:18:19.039Z,87.72
2018-12-17T07:20:46.475Z,88.29
2018-12-17T07:23:13.983Z,87.80
2018-12-17T07:25:41.433Z,88.01
2018-12-17T07:28:08.845Z,88.19
2018-12-17T07:30:36.289Z,88.19
2018-12-17T07:33:03.736Z,88.15
2018-12-17T07:35:31.172Z,88.63
2018-12-17T07:37:58.627Z,88.56
2018-12-17T07:40:26.129Z,88.46
2018-12-17T07:42:53.562Z,88.68
2018-12-17T07:45:20.997Z,88.25
2018-12-17T07:47:48.408Z,88.84
2018-12-17T07:50:15.859Z,88.66
2018-12-17T07:52:43.339Z,88.49
2018-12-17T07:55:10.957Z,88.50
2018-12-17T07:57:38.407Z,88.90
2018-12-17T08:00:07.504Z,88.71
2018-12-17T08:02:34.917Z,88.78
2018-12-17T08:05:02.450Z,88.86
2018-12-17T08:07:29.894Z,88.88
2018-12-17T08:09:57.378Z,89.24
2018-12-17T08:12:24.824Z,89.06
2018-12-17T08:14:52.279Z,89.19
2018-12-17T08:17:19.811Z,89.21
2018-12-17T08:19:47.374Z,89.66
2018-12-17T08:22:14.806Z,89.22
2018-12-17T08:24:42.280Z,89.18
2018-12-17T08:27:09.757Z,89.62
2018-12-17T08:29:37.204Z,89.62
2018-12-17T08:32:04.709Z,89.52
2018-12-17T08:34:34.110Z,90.05
2018-12-17T08:37:01.540Z,90.02
2018-12-17T08:39:29.115Z,90.04
2018-12-17T08:41:56.553Z,90.07
2018-12-17T08:44:23.961Z,90.47
2018-12-17T08:46:51.402Z,90.21
2018-12-17T08:49:18.819Z,90.37
2018-12-17T08:51:46.294Z,90.08
2018-12-17T08:54:13.716Z,90.25
2018-12-17T08:56:41.194Z,90.15
2018-12-17T08:59:08.619Z,90.53
2018-12-17T09:01:36.151Z,90.39
2018-12-17T09:04:03.674Z,90.42
2018-12-17T09:06:31.115Z,90.66
2018-12-17T09:08:58.542Z,90.30
2018-12-17T09:11:26.048Z,90.41
2018-12-17T09:13:53.503Z,90.77
2018-12-17T09:16:22.132Z,90.64
2018-12-17T09:18:49.653Z,90.79
2018-12-17T09:21:17.074Z,90.49
2018-12-17T09:23:44.519Z,90.39
2018-12-17T09:26:11.938Z,90.73
2018-12-17T09:28:39.366Z,90.59
2018-12-17T09:31:06.874Z,90.42
2018-12-17T09:33:34.810Z,90.59
2018-12-17T09:36:02.321Z,90.79
2018-12-17T09:38:29.786Z,90.69
2018-12-17T09:40:57.261Z,90.52
2018-12-17T09:43:24.723Z,90.87
2018-12-17T09:45:52.269Z,90.64
2018-12-17T09:48:19.818Z,90.70
2018-12-17T09:50:47.394Z,91.19
2018-12-17T09:53:14.825Z,91.15
2018-12-17T09:55:42.360Z,91.46
2018-12-17T09:58:09.802Z,91.26
2018-12-17T10:00:37.268Z,91.30
2018-12-17T10:03:04.695Z,91.35
2018-12-17T10:05:32.133Z,91.33
2018-12-17T10:07:59.585Z,91.23
2018-12-17T10:10:27.051Z,91.23
2018-12-17T10:12:54.471Z,91.26
2018-12-17T10:15:21.946Z,91.15
2018-12-17T10:17:50.399Z,91.17
2018-12-17T10:20:17.862Z,90.60
2018-12-17T10:22:45.287Z,90.75
2018-12-17T10:25:12.723Z,90.73
2018-12-17T10:27:40.140Z,90.12
2018-12-17T10:30:07.770Z,90.22
2018-12-17T10:32:35.190Z,89.74
2018-12-17T10:35:02.611Z,89.81
2018-12-17T10:37:30.325Z,89.51
2018-12-17T10:39:57.787Z,89.41
2018-12-17T10:42:25.214Z,89.24
2018-12-17T10:44:52.672Z,89.53
2018-12-17T10:47:20.095Z,88.76
2018-12-17T10:49:47.534Z,88.66
2018-12-17T10:52:14.990Z,88.36
2018-12-17T10:54:42.428Z,88.38
2018-12-17T10:57:09.873Z,88.32
2018-12-17T10:59:37.302Z,88.26
2018-12-17T11:02:07.050Z,88.11
2018-12-17T11:04:36.459Z,88.05
2018-12-17T11:07:04.195Z,87.93
2018-12-17T11:09:31.611Z,87.96
2018-12-17T11:11:59.074Z,88.05
2018-12-17T11:14:26.502Z,87.79
2018-12-17T11:16:53.935Z,87.93
2018-12-17T11:19:21.526Z,87.93
2018-12-17T11:21:49.103Z,88.07
2018-12-17T11:24:16.626Z,87.82
2018-12-17T11:26:44.069Z,87.99
2018-12-17T11:29:11.525Z,87.79
2018-12-17T11:31:38.954Z,88.17
2018-12-17T11:34:06.396Z,87.64
2018-12-17T11:36:33.811Z,87.92
2018-12-17T11:39:01.348Z,88.02
2018-12-17T11:41:28.775Z,87.87
2018-12-17T11:43:56.218Z,87.77
2018-12-17T11:46:23.781Z,87.56
2018-12-17T11:48:51.349Z,87.47
2018-12-17T11:51:18.762Z,87.42
2018-12-17T11:53:46.213Z,87.61
2018-12-17T11:56:13.858Z,87.51
2018-12-17T11:58:41.408Z,87.69
2018-12-17T12:01:10.118Z,87.68
2018-12-17T12:03:38.337Z,87.59
2018-12-17T12:06:06.067Z,87.46
2018-12-17T12:08:33.503Z,87.65
2018-12-17T12:11:00.965Z,87.54
2018-12-17T12:13:28.411Z,87.62
2018-12-17T12:15:55.832Z,87.09
2018-12-17T12:18:23.264Z,87.24
2018-12-17T12:20:50.714Z,86.99
2018-12-17T12:23:18.129Z,87.14
2018-12-17T12:25:45.575Z,87.10
2018-12-17T12:28:13.104Z,86.80
2018-12-17T12:30:40.642Z,86.90
2018-12-17T12:33:08.107Z,87.05
2018-12-17T12:35:35.626Z,87.43
2018-12-17T12:38:03.056Z,87.22
2018-12-17T12:40:30.487Z,87.22
2018-12-17T12:42:57.903Z,87.35
2018-12-17T12:45:25.362Z,86.82
2018-12-17T12:47:52.787Z,87.18
2018-12-17T12:50:20.239Z,87.21
2018-12-17T12:52:47.690Z,87.29
2018-12-17T12:55:15.235Z,87.44
2018-12-17T12:57:42.666Z,87.24
2018-12-17T13:00:11.526Z,87.46
2018-12-17T13:02:39.073Z,87.45
2018-12-17T13:05:06.685Z,87.46
2018-12-17T13:07:34.138Z,87.81
2018-12-17T13:10:01.564Z,87.58
2018-12-17T13:12:28.982Z,87.54
2018-12-17T13:14:56.415Z,87.79
2018-12-17T13:17:28.193Z,87.26
2018-12-17T13:19:59.554Z,87.42
2018-12-17T13:22:26.994Z,87.24
2018-12-17T13:24:54.416Z,88.04
2018-12-17T13:27:21.892Z,87.79
2018-12-17T13:29:49.312Z,88.17
2018-12-17T13:32:17.072Z,87.92
2018-12-17T13:34:44.483Z,87.79
2018-12-17T13:37:11.931Z,87.78
2018-12-17T13:39:39.361Z,87.75
2018-12-17T13:42:07.899Z,88.00
2018-12-17T13:44:35.360Z,87.94
2018-12-17T13:47:02.890Z,87.72
2018-12-17T13:49:30.345Z,87.60
2018-12-17T13:55:05.732Z,87.43
2018-12-17T13:57:33.172Z,87.40
2018-12-17T14:00:00.604Z,87.25
2018-12-17T14:02:28.040Z,86.86
2018-12-17T14:04:55.635Z,86.74
2018-12-17T14:07:23.062Z,86.57
2018-12-17T14:12:55.690Z,85.71
2018-12-17T14:15:25.138Z,86.16
2018-12-17T14:17:54.583Z,85.58
2018-12-17T14:20:27.695Z,85.42
2018-12-17T14:22:55.169Z,85.40
2018-12-17T14:25:22.830Z,85.15
2018-12-17T14:27:50.257Z,84.92
2018-12-17T14:30:17.731Z,85.39
2018-12-17T14:32:45.148Z,85.22
2018-12-17T14:35:12.579Z,85.19
2018-12-17T14:37:41.986Z,84.79
2018-12-17T14:40:09.644Z,84.07
2018-12-17T14:42:37.066Z,84.47
2018-12-17T14:45:04.888Z,84.51
2018-12-17T14:47:32.419Z,84.47
2018-12-17T14:49:59.857Z,84.38
2018-12-17T14:52:27.324Z,84.42
2018-12-17T14:54:54.771Z,84.32
2018-12-17T14:57:22.291Z,84.10
2018-12-17T14:59:49.726Z,84.28
2018-12-17T15:02:17.314Z,84.20
2018-12-17T15:04:44.777Z,84.26
2018-12-17T15:07:12.205Z,84.01
2018-12-17T15:09:39.622Z,84.24
2018-12-17T15:12:07.062Z,83.73
2018-12-17T15:14:34.487Z,83.91
2018-12-17T15:17:01.926Z,83.87
2018-12-17T15:19:29.415Z,83.82
2018-12-17T15:21:56.887Z,83.74
2018-12-17T15:24:24.653Z,83.99
2018-12-17T15:26:52.198Z,84.37
2018-12-17T15:29:19.863Z,84.17
2018-12-17T15:31:47.425Z,84.33
2018-12-17T15:34:14.990Z,84.58
2018-12-17T15:36:42.649Z,84.46
2018-12-17T15:39:10.088Z,84.65
2018-12-17T15:41:37.555Z,84.77
2018-12-17T15:44:04.994Z,84.82
2018-12-17T15:46:32.452Z,85.05
2018-12-17T15:48:59.990Z,85.17
2018-12-17T15:51:27.420Z,85.12
2018-12-17T15:53:54.872Z,84.93
2018-12-17T15:56:22.292Z,85.11
2018-12-17T15:58:49.734Z,84.79
2018-12-17T16:01:17.173Z,85.17
2018-12-17T16:03:44.601Z,84.92
2018-12-17T16:06:12.045Z,85.22
2018-12-17T16:08:39.486Z,85.15
2018-12-17T16:11:07.002Z,85.17
2018-12-17T16:13:34.464Z,84.53
2018-12-17T16:16:01.882Z,84.83
2018-12-17T16:18:29.443Z,84.75
2018-12-17T16:20:56.888Z,84.63
2018-12-17T16:23:24.320Z,84.60
2018-12-17T16:25:51.773Z,84.51
2018-12-17T16:28:19.214Z,84.05
2018-12-17T16:33:20.432Z,84.55
2018-12-17T16:35:47.900Z,84.78
2018-12-17T16:38:15.329Z,84.52
2018-12-17T16:40:42.951Z,84.82
2018-12-17T16:43:10.383Z,84.79
2018-12-17T16:45:37.838Z,84.91
2018-12-17T16:48:05.270Z,85.01
2018-12-17T16:50:32.709Z,85.76
2018-12-17T16:53:00.181Z,85.01
2018-12-17T16:55:28.337Z,85.73
2018-12-17T16:57:55.809Z,85.40
2018-12-17T17:00:23.258Z,85.54
2018-12-17T17:02:50.854Z,85.99
2018-12-17T17:05:18.476Z,85.71
2018-12-17T17:07:45.925Z,85.84
2018-12-17T17:10:13.420Z,85.97
2018-12-17T17:12:41.006Z,86.08
2018-12-17T17:15:09.491Z,86.39
2018-12-17T17:17:36.953Z,86.15
2018-12-17T17:20:06.096Z,86.21
2018-12-17T17:22:33.541Z,86.38
2018-12-17T17:25:01.046Z,86.40
2018-12-17T17:27:30.444Z,86.03
2018-12-17T17:29:58.096Z,86.39
2018-12-17T17:32:25.546Z,86.36
2018-12-17T17:34:53.014Z,86.29
2018-12-17T17:37:20.412Z,86.59
2018-12-17T17:39:49.916Z,86.48
2018-12-17T17:42:17.472Z,86.58
2018-12-17T17:44:45.763Z,86.49
2018-12-17T17:47:13.181Z,86.68
2018-12-17T17:49:40.651Z,86.38
2018-12-17T17:52:08.091Z,86.77
2018-12-17T17:54:35.550Z,86.58
2018-12-17T17:57:07.225Z,86.66
2018-12-17T17:59:34.916Z,86.78
2018-12-17T18:02:02.354Z,86.77
2018-12-17T18:04:29.915Z,86.56
2018-12-17T18:06:57.393Z,86.71
2018-12-17T18:09:24.875Z,86.42
2018-12-17T18:11:52.343Z,86.62
2018-12-17T18:14:19.798Z,86.81
2018-12-17T18:16:47.438Z,87.32
2018-12-17T18:19:14.895Z,86.57
2018-12-17T18:21:42.391Z,86.77
2018-12-17T18:24:09.863Z,86.34
2018-12-17T18:26:37.309Z,87.10
2018-12-17T18:29:08.960Z,87.05
2018-12-17T18:31:36.443Z,87.20
2018-12-17T18:34:04.906Z,87.26
2018-12-17T18:36:32.395Z,86.75
2018-12-17T18:38:59.898Z,87.27
2018-12-17T18:41:27.497Z,87.57
2018-12-17T18:43:59.614Z,87.53
2018-12-17T18:46:27.215Z,87.46
2018-12-17T18:48:54.779Z,87.69
2018-12-17T18:51:22.242Z,87.35
2018-12-17T18:53:49.691Z,87.24
2018-12-17T18:56:17.294Z,87.94
2018-12-17T18:58:46.024Z,87.39
2018-12-17T19:01:13.591Z,87.71
2018-12-17T19:03:41.051Z,87.93
2018-12-17T19:06:08.480Z,87.66
2018-12-17T19:08:36.125Z,87.55
2018-12-17T19:11:03.615Z,87.47
2018-12-17T19:13:31.200Z,87.76
2018-12-17T19:15:58.649Z,87.57
2018-12-17T19:18:26.971Z,87.32
2018-12-17T19:20:54.400Z,87.38
2018-12-17T19:23:22.009Z,87.55
2018-12-17T19:25:49.492Z,87.68
2018-12-17T19:28:16.974Z,87.70
2018-12-17T19:30:45.040Z,87.55
2018-12-17T19:33:12.578Z,87.53
2018-12-17T19:35:40.047Z,87.58
2018-12-17T19:38:07.539Z,87.66
2018-12-17T19:40:35.012Z,87.84
2018-12-17T19:43:02.521Z,87.45
2018-12-17T19:45:29.978Z,87.62
2018-12-17T19:47:57.402Z,87.38
2018-12-17T19:50:29.330Z,87.50
2018-12-17T19:52:56.833Z,87.85
2018-12-17T19:55:24.388Z,87.49
2018-12-17T19:57:51.923Z,87.45
2018-12-17T20:00:19.536Z,87.76
2018-12-17T20:02:47.341Z,87.60
2018-12-17T20:05:14.800Z,87.98
2018-12-17T20:07:42.355Z,87.78
2018-12-17T20:10:11.910Z,87.31
2018-12-17T20:12:39.477Z,87.62
2018-12-17T20:15:07.048Z,87.74
2018-12-17T20:17:34.661Z,87.68
2018-12-17T20:20:02.291Z,87.55
2018-12-17T20:22:29.756Z,87.50
2018-12-17T20:24:57.269Z,87.66
2018-12-17T20:27:24.719Z,87.40
2018-12-17T20:29:52.384Z,87.13
2018-12-17T20:32:19.801Z,87.74
2018-12-17T20:34:47.329Z,87.77
2018-12-17T20:37:14.733Z,87.66
2018-12-17T20:39:42.351Z,87.81
2018-12-17T20:42:09.801Z,88.03
2018-12-17T20:44:37.241Z,88.24
2018-12-17T20:47:04.821Z,88.06
2018-12-17T20:49:32.265Z,88.18
2018-12-17T20:51:59.732Z,88.26
2018-12-17T20:54:27.203Z,88.32
2018-12-17T20:56:54.642Z,88.07
2018-12-17T20:59:22.174Z,88.23
2018-12-17T21:01:49.621Z,87.99
2018-12-17T21:04:17.065Z,88.29
2018-12-17T21:06:49.904Z,88.16
2018-12-17T21:09:14.040Z,88.28
2018-12-17T21:11:42.244Z,88.01
2018-12-17T21:14:09.670Z,87.84
2018-12-17T21:16:37.263Z,88.16
2018-12-17T21:19:04.700Z,88.41
2018-12-17T21:21:32.130Z,87.90
2018-12-17T21:23:59.601Z,88.34
2018-12-17T21:26:27.063Z,88.39
2018-12-17T21:28:55.867Z,88.43
2018-12-17T21:31:23.494Z,88.41
2018-12-17T21:33:50.922Z,88.23
2018-12-17T21:36:18.367Z,88.43
2018-12-17T21:38:45.840Z,88.11
2018-12-17T21:41:13.273Z,88.16
2018-12-17T21:43:41.637Z,88.54
2018-12-17T21:46:09.124Z,88.58
2018-12-17T21:48:36.561Z,88.20
2018-12-17T21:51:04.236Z,88.17
2018-12-17T21:53:31.910Z,88.03
2018-12-17T21:55:59.345Z,88.15
2018-12-17T21:58:26.846Z,88.42
2018-12-17T22:00:54.267Z,88.25
2018-12-17T22:03:21.675Z,88.50
2018-12-17T22:05:49.121Z,88.41
2018-12-17T22:08:16.554Z,88.09
2018-12-17T22:10:44.159Z,87.73
2018-12-17T22:13:11.605Z,87.87
2018-12-17T22:15:39.072Z,87.85
2018-12-17T22:18:06.497Z,87.82
2018-12-17T22:20:33.966Z,87.74
2018-12-17T22:23:01.415Z,87.89
2018-12-17T22:25:28.877Z,88.17
2018-12-17T22:27:56.313Z,88.28
2018-12-17T22:30:23.740Z,88.38
2018-12-17T22:32:51.210Z,88.01
2018-12-17T22:35:18.654Z,88.02
2018-12-17T22:37:46.117Z,88.20
2018-12-17T22:40:13.655Z,88.19
2018-12-17T22:42:41.095Z,87.86
2018-12-17T22:45:08.823Z,88.36
2018-12-17T22:47:36.387Z,87.98
2018-12-17T22:50:08.124Z,87.79
2018-12-17T22:52:35.560Z,87.31
2018-12-17T22:55:03.050Z,87.53
2018-12-17T22:57:30.543Z,87.54
2018-12-17T22:59:57.979Z,87.49
2018-12-17T23:02:25.498Z,87.76
2018-12-17T23:04:52.916Z,87.37
2018-12-17T23:07:20.397Z,87.21
2018-12-17T23:09:59.731Z,87.52
2018-12-17T23:12:39.106Z,86.78
2018-12-17T23:15:18.501Z,87.42
2018-12-17T23:17:45.555Z,87.04
2018-12-17T23:20:13.052Z,87.59
2018-12-17T23:22:42.767Z,87.29
2018-12-17T23:25:10.203Z,86.78
2018-12-17T23:27:37.823Z,87.51
2018-12-17T23:30:06.909Z,87.48
2018-12-17T23:32:34.540Z,87.00
2018-12-17T23:35:01.963Z,87.47
2018-12-17T23:37:29.392Z,87.31
2018-12-17T23:39:56.952Z,87.55
2018-12-17T23:42:24.382Z,87.11
2018-12-17T23:44:51.886Z,87.46
2018-12-17T23:47:19.353Z,87.17
2018-12-17T23:49:46.832Z,87.34
2018-12-17T23:52:14.357Z,87.25
2018-12-17T23:54:41.987Z,87.36
2018-12-17T23:57:09.439Z,87.32
2018-12-17T23:59:36.893Z,87.33
